Terminal Aerodrome Forecast
Issued by NWS Pueblo, CO

Home | Current Version | Previous Version | Text Only | Print | Product List | Glossary On
Versions: 1 2 3 4 5 6 7 8 9 10 11 12 13 14 15 16 17 18 19 20 21
000
FTUS45 KPUB 201207 RRA
TAFCOS
TAF
KCOS 201207Z 2012/2112 12010KT P6SM BKN080
     FM201300 15015KT P6SM BKN025 OVC100
     FM201700 13020G30KT P6SM -SHRA OVC015
     FM202100 12015G25KT 4SM -SHRA OVC010
     FM210100 11012KT 3SM -SHRASN OVC005
     FM210700 03008KT P6SM VCSH OVC010=

USA.gov is the U.S. government's official web portal to all federal, state and local government web resources and services.